createdAt,value
2023-03-07T00:00:23.601Z,100.00
2023-03-07T00:02:52.334Z,100.00
2023-03-07T00:05:20.169Z,100.00
2023-03-07T00:07:47.937Z,100.00
2023-03-07T00:10:15.701Z,100.00
2023-03-07T00:12:43.415Z,100.00
2023-03-07T00:15:13.006Z,100.00
2023-03-07T00:17:42.099Z,100.00
2023-03-07T00:20:15.347Z,100.00
2023-03-07T00:22:44.177Z,100.00
2023-03-07T00:25:12.264Z,100.00
2023-03-07T00:27:40.246Z,100.00
2023-03-07T00:30:09.950Z,100.00
2023-03-07T00:32:37.837Z,100.00
2023-03-07T00:35:08.040Z,100.00
2023-03-07T00:37:35.797Z,100.00
2023-03-07T00:40:05.943Z,100.00
2023-03-07T00:42:33.671Z,100.00
2023-03-07T00:45:01.415Z,100.00
2023-03-07T00:47:29.123Z,100.00
2023-03-07T00:49:56.882Z,100.00
2023-03-07T00:52:25.964Z,100.00
2023-03-07T00:54:53.699Z,100.00
2023-03-07T00:57:22.655Z,100.00
2023-03-07T00:59:50.411Z,100.00
2023-03-07T01:02:18.116Z,100.00
2023-03-07T01:04:45.997Z,100.00
2023-03-07T01:07:13.711Z,100.00
2023-03-07T01:09:42.832Z,100.00
2023-03-07T01:12:10.822Z,100.00
2023-03-07T01:14:38.543Z,100.00
2023-03-07T01:17:06.323Z,100.00
2023-03-07T01:19:34.149Z,100.00
2023-03-07T01:22:02.899Z,100.00
2023-03-07T01:24:33.393Z,100.00
2023-03-07T01:27:02.530Z,100.00
2023-03-07T01:29:30.278Z,100.00
2023-03-07T01:31:58.110Z,100.00
2023-03-07T01:34:26.271Z,100.00
2023-03-07T01:36:54.041Z,100.00
2023-03-07T01:39:21.767Z,100.00
2023-03-07T01:41:49.633Z,100.00
2023-03-07T01:44:21.293Z,100.00
2023-03-07T01:46:52.842Z,100.00
2023-03-07T01:49:25.986Z,100.00
2023-03-07T01:52:00.191Z,100.00
2023-03-07T01:54:28.677Z,100.00
2023-03-07T01:56:57.048Z,100.00
2023-03-07T01:59:32.727Z,100.00
2023-03-07T02:02:04.505Z,100.00
2023-03-07T02:04:37.622Z,100.00
2023-03-07T02:07:06.549Z,100.00
2023-03-07T02:09:36.298Z,100.00
2023-03-07T02:12:04.687Z,100.00
2023-03-07T02:14:36.017Z,100.00
2023-03-07T02:17:05.021Z,100.00
2023-03-07T02:19:48.112Z,100.00
2023-03-07T02:22:18.791Z,100.00
2023-03-07T02:24:52.115Z,100.00
2023-03-07T02:27:21.458Z,100.00
2023-03-07T02:29:49.185Z,100.00
2023-03-07T02:32:17.052Z,100.00
2023-03-07T02:34:44.917Z,100.00
2023-03-07T02:37:16.802Z,100.00
2023-03-07T02:39:46.748Z,100.00
2023-03-07T02:42:18.408Z,100.00
2023-03-07T02:44:48.494Z,100.00
2023-03-07T02:47:16.282Z,100.00
2023-03-07T02:49:44.011Z,100.00
2023-03-07T02:52:11.735Z,100.00
2023-03-07T02:54:39.481Z,100.00
2023-03-07T02:57:07.298Z,100.00
2023-03-07T02:59:35.061Z,100.00
2023-03-07T03:02:04.310Z,100.00
2023-03-07T03:04:32.111Z,100.00
2023-03-07T03:06:59.862Z,100.00
2023-03-07T03:09:28.102Z,100.00
2023-03-07T03:11:55.830Z,100.00
2023-03-07T03:14:23.554Z,100.00
2023-03-07T03:16:53.116Z,100.00
2023-03-07T03:19:22.466Z,100.00
2023-03-07T03:21:50.392Z,100.00
2023-03-07T03:24:18.088Z,100.00
2023-03-07T03:26:45.843Z,100.00
2023-03-07T03:29:13.601Z,100.00
2023-03-07T03:31:41.496Z,100.00
2023-03-07T03:34:09.577Z,100.00
2023-03-07T03:36:38.714Z,100.00
2023-03-07T03:39:10.935Z,100.00
2023-03-07T03:41:39.179Z,100.00
2023-03-07T03:44:06.979Z,100.00
2023-03-07T03:46:34.758Z,100.00
2023-03-07T03:49:02.531Z,100.00
2023-03-07T03:51:30.622Z,100.00
2023-03-07T03:53:59.767Z,100.00
2023-03-07T03:56:29.635Z,100.00
2023-03-07T03:58:58.720Z,100.00
2023-03-07T04:01:28.719Z,100.00
2023-03-07T04:03:57.179Z,100.00
2023-03-07T04:06:26.708Z,100.00
2023-03-07T04:08:55.233Z,100.00
2023-03-07T04:11:27.380Z,100.00
2023-03-07T04:13:55.222Z,100.00
2023-03-07T04:16:23.466Z,100.00
2023-03-07T04:18:52.370Z,100.00
2023-03-07T04:21:20.773Z,100.00
2023-03-07T04:23:49.585Z,100.00
2023-03-07T04:26:17.799Z,100.00
2023-03-07T04:28:46.921Z,100.00
2023-03-07T04:31:16.666Z,100.00
2023-03-07T04:33:45.213Z,100.00
2023-03-07T04:36:13.919Z,100.00
2023-03-07T04:38:42.390Z,100.00
2023-03-07T04:41:13.898Z,100.00
2023-03-07T04:43:41.700Z,100.00
2023-03-07T04:46:12.165Z,100.00
2023-03-07T04:48:40.100Z,100.00
2023-03-07T04:51:07.851Z,100.00
2023-03-07T04:53:35.681Z,100.00
2023-03-07T04:56:05.142Z,100.00
2023-03-07T04:58:34.040Z,100.00
2023-03-07T05:01:02.572Z,100.00
2023-03-07T05:03:32.289Z,100.00
2023-03-07T05:06:03.542Z,100.00
2023-03-07T05:08:31.723Z,100.00
2023-03-07T05:10:59.591Z,100.00
2023-03-07T05:13:27.471Z,100.00
2023-03-07T05:15:56.972Z,100.00
2023-03-07T05:18:25.157Z,100.00
2023-03-07T05:20:54.278Z,100.00
2023-03-07T05:23:22.741Z,100.00
2023-03-07T05:25:50.681Z,100.00
2023-03-07T05:28:19.469Z,100.00
2023-03-07T05:30:47.851Z,100.00
2023-03-07T05:33:16.199Z,100.00
2023-03-07T05:35:44.145Z,100.00
2023-03-07T05:38:13.348Z,100.00
2023-03-07T05:40:41.320Z,100.00
2023-03-07T05:43:09.275Z,100.00
2023-03-07T05:45:37.541Z,100.00
2023-03-07T05:48:05.585Z,100.00
2023-03-07T05:50:33.327Z,100.00
2023-03-07T05:53:01.160Z,100.00
2023-03-07T05:55:30.364Z,100.00
2023-03-07T05:57:58.126Z,100.00
2023-03-07T06:00:26.101Z,100.00
2023-03-07T06:02:53.935Z,100.00
2023-03-07T06:05:23.213Z,100.00
2023-03-07T06:07:52.069Z,100.00
2023-03-07T06:10:20.982Z,100.00
2023-03-07T06:12:52.020Z,100.00
2023-03-07T06:15:20.101Z,100.00
2023-03-07T06:18:03.680Z,100.00
2023-03-07T06:20:40.748Z,100.00
2023-03-07T06:23:08.565Z,100.00
2023-03-07T06:25:36.415Z,100.00
2023-03-07T06:28:05.769Z,100.00
2023-03-07T06:30:33.493Z,100.00
2023-03-07T06:33:02.835Z,100.00
2023-03-07T06:35:30.575Z,100.00
2023-03-07T06:38:00.372Z,100.00
2023-03-07T06:40:28.210Z,100.00
2023-03-07T06:42:57.911Z,100.00
2023-03-07T06:45:27.178Z,100.00
2023-03-07T06:47:55.111Z,100.00
2023-03-07T06:50:33.472Z,100.00
2023-03-07T06:53:02.788Z,100.00
2023-03-07T06:55:32.785Z,100.00
2023-03-07T06:58:00.628Z,100.00
2023-03-07T07:00:31.894Z,100.00
2023-03-07T07:02:59.927Z,100.00
2023-03-07T07:05:27.931Z,100.00
2023-03-07T07:07:55.693Z,100.00
2023-03-07T07:10:23.433Z,100.00
2023-03-07T07:12:54.515Z,100.00
2023-03-07T07:15:22.242Z,100.00
2023-03-07T07:17:51.535Z,100.00
2023-03-07T07:20:20.422Z,100.00
2023-03-07T07:22:48.193Z,100.00
2023-03-07T07:25:16.256Z,100.00
2023-03-07T07:27:44.225Z,100.00
2023-03-07T07:30:13.878Z,100.00
2023-03-07T07:32:41.807Z,100.00
2023-03-07T07:35:11.429Z,100.00
2023-03-07T07:37:41.350Z,100.00
2023-03-07T07:40:16.577Z,100.00
2023-03-07T07:42:44.500Z,100.00
2023-03-07T07:45:12.795Z,100.00
2023-03-07T07:47:40.563Z,100.00
2023-03-07T07:50:09.236Z,100.00
2023-03-07T07:52:38.327Z,100.00
2023-03-07T07:55:06.880Z,100.00
2023-03-07T07:57:34.711Z,100.00
2023-03-07T08:00:04.484Z,100.00
2023-03-07T08:02:32.331Z,100.00
2023-03-07T08:05:00.271Z,100.00
2023-03-07T08:07:28.080Z,100.00
2023-03-07T08:09:57.177Z,100.00
2023-03-07T08:12:26.968Z,100.00
2023-03-07T08:14:55.322Z,100.00
2023-03-07T08:17:23.060Z,100.00
2023-03-07T08:19:50.835Z,100.00
2023-03-07T08:22:19.559Z,100.00
2023-03-07T08:24:47.608Z,100.00
2023-03-07T08:27:16.771Z,100.00
2023-03-07T08:29:44.575Z,100.00
2023-03-07T08:32:15.288Z,100.00
2023-03-07T08:34:43.055Z,100.00
2023-03-07T08:37:11.265Z,100.00
2023-03-07T08:39:39.031Z,100.00
2023-03-07T08:42:07.260Z,100.00
2023-03-07T08:44:37.099Z,100.00
2023-03-07T08:47:04.889Z,100.00
2023-03-07T08:49:32.645Z,100.00
2023-03-07T08:52:00.362Z,100.00
2023-03-07T08:54:29.270Z,100.00
2023-03-07T08:56:57.146Z,100.00
2023-03-07T08:59:24.890Z,100.00
2023-03-07T09:01:54.145Z,100.00
2023-03-07T09:04:22.038Z,100.00
2023-03-07T09:06:49.864Z,100.00
2023-03-07T09:09:17.833Z,100.00
2023-03-07T09:11:45.654Z,100.00
2023-03-07T09:14:13.407Z,100.00
2023-03-07T09:16:41.400Z,100.00
2023-03-07T09:19:10.958Z,100.00
2023-03-07T09:21:38.909Z,100.00
2023-03-07T09:24:06.865Z,100.00
2023-03-07T09:26:35.399Z,100.00
2023-03-07T09:29:03.165Z,100.00
2023-03-07T09:31:31.029Z,100.00
2023-03-07T09:33:58.828Z,100.00
2023-03-07T09:36:27.978Z,100.00
2023-03-07T09:38:58.204Z,100.00
2023-03-07T09:41:50.503Z,100.00
2023-03-07T09:44:26.243Z,100.00
2023-03-07T09:47:11.022Z,100.00
2023-03-07T09:49:45.925Z,100.00
2023-03-07T09:52:17.708Z,100.00
2023-03-07T09:54:49.023Z,100.00
2023-03-07T09:57:20.570Z,100.00
2023-03-07T09:59:51.179Z,100.00
2023-03-07T10:02:26.095Z,100.00
2023-03-07T10:04:56.253Z,100.00
2023-03-07T10:07:27.697Z,100.00
2023-03-07T10:10:00.696Z,100.00
2023-03-07T10:12:57.849Z,100.00
2023-03-07T10:15:48.555Z,100.00
2023-03-07T10:18:48.939Z,100.00
2023-03-07T10:21:29.110Z,100.00
2023-03-07T10:24:24.262Z,100.00
2023-03-07T10:27:00.869Z,100.00
2023-03-07T10:29:34.139Z,100.00
2023-03-07T10:32:16.693Z,100.00
2023-03-07T10:34:44.606Z,100.00
2023-03-07T10:37:17.781Z,100.00
2023-03-07T10:39:52.275Z,100.00
2023-03-07T10:42:22.143Z,100.00
2023-03-07T10:44:51.424Z,100.00
2023-03-07T10:47:22.341Z,100.00
2023-03-07T10:49:53.578Z,100.00
2023-03-07T10:52:32.044Z,100.00
2023-03-07T10:55:32.848Z,100.00
2023-03-07T10:58:20.677Z,100.00
2023-03-07T11:01:00.045Z,100.00
2023-03-07T11:03:45.965Z,100.00
2023-03-07T11:06:40.355Z,100.00
2023-03-07T11:09:17.683Z,100.00
2023-03-07T11:11:53.874Z,100.00
2023-03-07T11:14:23.528Z,100.00
2023-03-07T11:16:54.698Z,100.00
2023-03-07T11:19:33.471Z,100.00
2023-03-07T11:22:03.648Z,100.00
2023-03-07T11:24:34.811Z,100.00
2023-03-07T11:27:02.557Z,100.00
2023-03-07T11:29:33.720Z,100.00
2023-03-07T11:32:09.597Z,100.00
2023-03-07T11:34:42.275Z,100.00
2023-03-07T11:37:29.231Z,100.00
2023-03-07T11:40:19.551Z,100.00
2023-03-07T11:43:00.496Z,100.00
2023-03-07T11:45:43.360Z,100.00
2023-03-07T11:48:27.667Z,100.00
2023-03-07T11:50:58.399Z,100.00
2023-03-07T11:53:34.755Z,100.00
2023-03-07T11:56:19.073Z,100.00
2023-03-07T11:59:11.040Z,100.00
2023-03-07T12:01:48.322Z,100.00
2023-03-07T12:05:00.956Z,100.00
2023-03-07T12:07:51.105Z,100.00
2023-03-07T12:10:32.840Z,100.00
2023-03-07T12:13:18.292Z,100.00
2023-03-07T12:15:55.365Z,100.00
2023-03-07T12:18:50.101Z,100.00
2023-03-07T12:21:34.087Z,100.00
2023-03-07T12:24:04.999Z,100.00
2023-03-07T12:26:38.706Z,100.00
2023-03-07T12:29:15.550Z,100.00
2023-03-07T12:31:48.675Z,100.00
2023-03-07T12:34:34.268Z,100.00
2023-03-07T12:37:06.690Z,100.00
2023-03-07T12:39:48.084Z,100.00
2023-03-07T12:42:24.970Z,100.00
2023-03-07T12:44:58.176Z,100.00
2023-03-07T12:47:31.724Z,100.00
2023-03-07T12:50:10.015Z,100.00
2023-03-07T12:52:44.437Z,100.00
2023-03-07T12:55:23.002Z,100.00
2023-03-07T12:57:58.961Z,100.00
2023-03-07T13:00:27.132Z,100.00
2023-03-07T13:03:01.883Z,100.00
2023-03-07T13:05:34.446Z,100.00
2023-03-07T13:08:03.344Z,100.00
2023-03-07T13:10:31.945Z,100.00
2023-03-07T13:12:59.740Z,100.00
2023-03-07T13:16:12.782Z,100.00
2023-03-07T13:18:40.885Z,100.00
2023-03-07T13:21:33.605Z,100.00
2023-03-07T13:24:36.884Z,100.00
2023-03-07T13:27:06.507Z,100.00
2023-03-07T13:30:12.580Z,100.00
2023-03-07T13:33:00.419Z,100.00
2023-03-07T13:35:54.054Z,100.00
2023-03-07T13:38:44.135Z,100.00
2023-03-07T13:41:13.666Z,100.00
2023-03-07T13:44:01.486Z,100.00
2023-03-07T13:47:01.218Z,100.00
2023-03-07T13:49:45.904Z,100.00
2023-03-07T13:52:36.820Z,100.00
2023-03-07T13:55:20.955Z,100.00
2023-03-07T13:57:49.350Z,100.00
2023-03-07T14:00:35.288Z,100.00
2023-03-07T14:03:03.623Z,100.00
2023-03-07T14:05:34.541Z,100.00
2023-03-07T14:08:03.555Z,100.00
2023-03-07T14:10:32.995Z,100.00
2023-03-07T14:13:36.723Z,100.00
2023-03-07T14:16:15.632Z,100.00
2023-03-07T14:18:55.542Z,100.00
2023-03-07T14:21:35.347Z,100.00
2023-03-07T14:24:31.061Z,100.00
2023-03-07T14:27:04.695Z,100.00
2023-03-07T14:29:32.614Z,100.00
2023-03-07T14:32:01.256Z,100.00
2023-03-07T14:34:31.807Z,100.00
2023-03-07T14:37:01.621Z,100.00
2023-03-07T14:39:43.997Z,100.00
2023-03-07T14:42:21.442Z,100.00
2023-03-07T14:45:09.908Z,100.00
2023-03-07T14:47:51.581Z,100.00
2023-03-07T14:50:21.712Z,100.00
2023-03-07T14:52:50.042Z,100.00
2023-03-07T14:55:20.764Z,100.00
2023-03-07T14:57:53.144Z,100.00
2023-03-07T15:00:28.233Z,100.00
2023-03-07T15:02:58.108Z,100.00
2023-03-07T15:05:28.636Z,100.00
2023-03-07T15:07:56.802Z,100.00
2023-03-07T15:10:28.174Z,100.00
2023-03-07T15:12:58.698Z,100.00
2023-03-07T15:15:31.259Z,100.00
2023-03-07T15:18:04.931Z,100.00
2023-03-07T15:20:33.684Z,100.00
2023-03-07T15:23:05.118Z,100.00
2023-03-07T15:25:33.588Z,100.00
2023-03-07T15:28:05.138Z,100.00
2023-03-07T15:30:34.951Z,100.00
2023-03-07T15:33:23.849Z,100.00
2023-03-07T15:36:07.492Z,100.00
2023-03-07T15:38:35.645Z,100.00
2023-03-07T15:41:03.536Z,100.00
2023-03-07T15:43:36.333Z,100.00
2023-03-07T15:46:07.010Z,100.00
2023-03-07T15:48:43.862Z,100.00
2023-03-07T15:51:18.844Z,100.00
2023-03-07T15:53:55.961Z,99.94
2023-03-07T15:56:27.373Z,99.98
2023-03-07T15:59:01.723Z,100.00
2023-03-07T16:01:29.767Z,100.00
2023-03-07T16:04:00.285Z,99.46
2023-03-07T16:06:35.467Z,100.00
2023-03-07T16:09:04.883Z,100.00
2023-03-07T16:11:33.191Z,100.00
2023-03-07T16:14:02.600Z,100.00
2023-03-07T16:16:32.428Z,100.00
2023-03-07T16:19:00.476Z,100.00
2023-03-07T16:21:28.456Z,100.00
2023-03-07T16:23:56.210Z,100.00
2023-03-07T16:26:25.694Z,100.00
2023-03-07T16:28:54.664Z,100.00
2023-03-07T16:31:23.955Z,100.00
2023-03-07T16:33:51.831Z,100.00
2023-03-07T16:36:19.558Z,99.97
2023-03-07T16:38:47.415Z,100.00
2023-03-07T16:41:17.559Z,100.00
2023-03-07T16:43:47.188Z,99.81
2023-03-07T16:46:17.459Z,100.00
2023-03-07T16:48:46.967Z,99.85
2023-03-07T16:51:18.061Z,100.00
2023-03-07T16:53:46.302Z,100.00
2023-03-07T16:56:18.415Z,100.00
2023-03-07T16:58:46.395Z,100.00
2023-03-07T17:01:15.288Z,100.00
2023-03-07T17:03:43.338Z,100.00
2023-03-07T17:06:16.225Z,99.83
2023-03-07T17:08:44.400Z,100.00
2023-03-07T17:11:19.473Z,99.41
2023-03-07T17:13:48.664Z,99.98
2023-03-07T17:16:17.957Z,99.55
2023-03-07T17:18:46.249Z,99.78
2023-03-07T17:21:17.510Z,99.90
2023-03-07T17:23:46.061Z,99.08
2023-03-07T17:26:19.185Z,99.77
2023-03-07T17:28:47.504Z,99.83
2023-03-07T17:31:15.345Z,99.83
2023-03-07T17:33:43.232Z,99.07
2023-03-07T17:36:12.494Z,99.43
2023-03-07T17:38:41.617Z,99.43
2023-03-07T17:41:09.402Z,99.35
2023-03-07T17:43:37.180Z,98.41
2023-03-07T17:46:09.743Z,99.11
2023-03-07T17:48:37.601Z,97.95
2023-03-07T17:51:10.184Z,96.90
2023-03-07T17:53:38.565Z,97.20
2023-03-07T17:56:13.195Z,97.29
2023-03-07T17:58:41.053Z,97.08
2023-03-07T18:01:11.299Z,97.33
2023-03-07T18:03:39.956Z,97.09
2023-03-07T18:06:08.478Z,96.80
2023-03-07T18:08:37.325Z,96.91
2023-03-07T18:11:07.022Z,96.99
2023-03-07T18:13:36.458Z,96.80
2023-03-07T18:16:04.661Z,96.58
2023-03-07T18:18:34.769Z,96.53
2023-03-07T18:21:05.106Z,95.98
2023-03-07T18:23:33.596Z,96.03
2023-03-07T18:26:03.167Z,95.92
2023-03-07T18:28:31.182Z,96.22
2023-03-07T18:31:01.346Z,96.64
2023-03-07T18:33:29.418Z,96.98
2023-03-07T18:35:57.647Z,96.45
2023-03-07T18:38:26.033Z,96.59
2023-03-07T18:41:04.427Z,96.32
2023-03-07T18:43:32.576Z,95.60
2023-03-07T18:46:04.023Z,96.34
2023-03-07T18:48:32.170Z,96.69
2023-03-07T18:51:01.494Z,95.92
2023-03-07T18:53:29.511Z,96.54
2023-03-07T18:55:57.554Z,96.87
2023-03-07T18:58:26.324Z,97.14
2023-03-07T19:00:55.330Z,96.30
2023-03-07T19:03:24.503Z,96.97
2023-03-07T19:05:52.324Z,96.07
2023-03-07T19:08:20.166Z,96.25
2023-03-07T19:10:47.971Z,96.48
2023-03-07T19:13:15.903Z,96.92
2023-03-07T19:15:44.996Z,96.73
2023-03-07T19:18:12.907Z,97.35
2023-03-07T19:20:43.209Z,97.20
2023-03-07T19:23:11.058Z,96.83
2023-03-07T19:25:38.885Z,96.90
2023-03-07T19:28:06.628Z,96.57
2023-03-07T19:30:35.512Z,96.60
2023-03-07T19:33:03.290Z,96.50
2023-03-07T19:35:31.291Z,95.96
2023-03-07T19:38:00.692Z,95.96
2023-03-07T19:40:28.590Z,95.86
2023-03-07T19:42:56.586Z,95.67
2023-03-07T19:45:24.408Z,95.32
2023-03-07T19:47:52.216Z,95.95
2023-03-07T19:50:20.217Z,96.82
2023-03-07T19:52:48.076Z,97.63
2023-03-07T19:55:17.319Z,97.46
2023-03-07T19:57:46.872Z,98.61
2023-03-07T20:00:15.786Z,99.40
2023-03-07T20:02:43.525Z,99.58
2023-03-07T20:05:11.720Z,99.91
2023-03-07T20:07:39.442Z,98.82
2023-03-07T20:10:08.071Z,99.24
2023-03-07T20:12:37.518Z,99.30
2023-03-07T20:15:06.402Z,99.09
2023-03-07T20:17:34.485Z,99.32
2023-03-07T20:20:04.517Z,99.19
2023-03-07T20:22:32.321Z,99.02
2023-03-07T20:25:00.146Z,99.54
2023-03-07T20:27:27.962Z,98.48
2023-03-07T20:29:57.662Z,98.65
2023-03-07T20:32:25.646Z,98.95
2023-03-07T20:34:53.874Z,98.83
2023-03-07T20:37:21.633Z,97.77
2023-03-07T20:39:49.532Z,97.86
2023-03-07T20:42:17.305Z,97.60
2023-03-07T20:44:45.106Z,97.67
2023-03-07T20:47:14.391Z,97.22
2023-03-07T20:49:42.109Z,97.73
2023-03-07T20:52:10.065Z,97.49
2023-03-07T20:54:38.032Z,97.63
2023-03-07T20:57:05.891Z,97.60
2023-03-07T20:59:33.778Z,97.63
2023-03-07T21:02:01.604Z,97.63
2023-03-07T21:04:31.336Z,96.87
2023-03-07T21:06:59.061Z,96.75
2023-03-07T21:09:26.975Z,97.15
2023-03-07T21:11:54.956Z,98.11
2023-03-07T21:14:24.232Z,98.14
2023-03-07T21:16:52.175Z,100.00
2023-03-07T21:19:20.242Z,100.00
2023-03-07T21:21:49.358Z,100.00
2023-03-07T21:24:17.187Z,100.00
2023-03-07T21:26:45.053Z,100.00
2023-03-07T21:29:13.963Z,100.00
2023-03-07T21:31:41.948Z,100.00
2023-03-07T21:34:13.426Z,100.00
2023-03-07T21:36:41.242Z,99.67
2023-03-07T21:39:11.713Z,99.65
2023-03-07T21:41:39.567Z,99.49
2023-03-07T21:44:07.592Z,99.36
2023-03-07T21:46:35.404Z,98.74
2023-03-07T21:49:03.223Z,98.76
2023-03-07T21:51:31.145Z,98.77
2023-03-07T21:53:58.930Z,97.86
2023-03-07T21:56:28.152Z,97.98
2023-03-07T21:58:55.891Z,98.35
2023-03-07T22:01:26.803Z,97.87
2023-03-07T22:03:55.952Z,98.81
2023-03-07T22:06:26.133Z,98.51
2023-03-07T22:08:53.962Z,98.49
2023-03-07T22:11:21.920Z,98.48
2023-03-07T22:13:51.077Z,97.80
2023-03-07T22:16:21.489Z,98.86
2023-03-07T22:18:53.463Z,98.39
2023-03-07T22:21:21.278Z,98.11
2023-03-07T22:23:48.996Z,98.19
2023-03-07T22:26:16.816Z,98.55
2023-03-07T22:28:44.636Z,98.47
2023-03-07T22:31:13.817Z,98.41
2023-03-07T22:33:42.639Z,98.49
2023-03-07T22:36:13.216Z,98.91
2023-03-07T22:38:41.716Z,98.37
2023-03-07T22:41:12.409Z,98.94
2023-03-07T22:43:40.962Z,98.68
2023-03-07T22:46:09.429Z,98.12
2023-03-07T22:48:38.776Z,98.92
2023-03-07T22:51:12.612Z,97.87
2023-03-07T22:53:40.383Z,98.09
2023-03-07T22:56:14.556Z,98.83
2023-03-07T22:58:42.346Z,98.00
2023-03-07T23:01:14.398Z,99.05
2023-03-07T23:03:43.792Z,98.17
2023-03-07T23:06:11.588Z,99.05
2023-03-07T23:08:39.853Z,99.05
2023-03-07T23:11:09.500Z,98.42
2023-03-07T23:13:37.380Z,97.78
2023-03-07T23:16:05.581Z,98.01
2023-03-07T23:18:33.384Z,98.45
2023-03-07T23:21:04.252Z,98.17
2023-03-07T23:23:32.097Z,98.23
2023-03-07T23:25:59.887Z,98.65
2023-03-07T23:28:27.619Z,98.34
2023-03-07T23:30:55.373Z,98.77
2023-03-07T23:33:23.144Z,98.40
2023-03-07T23:35:51.019Z,97.79
2023-03-07T23:38:20.168Z,97.65
2023-03-07T23:40:47.946Z,97.98
2023-03-07T23:43:15.781Z,97.87
2023-03-07T23:45:43.582Z,98.57
2023-03-07T23:48:11.754Z,98.59
2023-03-07T23:50:39.488Z,98.28
2023-03-07T23:53:07.239Z,98.42
2023-03-07T23:55:36.373Z,97.49
2023-03-07T23:58:04.095Z,98.12
